createdAt,value
2017-08-22T00:01:51.995Z,5.25
2017-08-22T00:04:19.864Z,6.43
2017-08-22T00:06:47.607Z,5.55
2017-08-22T00:09:15.319Z,5.72
2017-08-22T00:11:43.158Z,5.50
2017-08-22T00:14:11.026Z,5.55
2017-08-22T00:16:38.892Z,5.60
2017-08-22T00:19:06.765Z,5.28
2017-08-22T00:21:34.639Z,5.22
2017-08-22T00:24:02.496Z,5.10
2017-08-22T00:26:30.468Z,5.50
2017-08-22T00:28:58.338Z,5.45
2017-08-22T00:31:26.204Z,5.70
2017-08-22T00:33:53.934Z,6.30
2017-08-22T00:36:21.666Z,5.55
2017-08-22T00:38:49.410Z,5.40
2017-08-22T00:41:17.259Z,5.68
2017-08-22T00:43:45.053Z,5.60
2017-08-22T00:46:12.891Z,4.95
2017-08-22T00:48:40.758Z,5.80
2017-08-22T00:51:08.727Z,5.45
2017-08-22T00:53:36.596Z,6.35
2017-08-22T00:56:04.565Z,5.05
2017-08-22T00:58:32.432Z,4.50
2017-08-22T01:01:00.183Z,5.55
2017-08-22T01:03:27.950Z,5.68
2017-08-22T01:05:55.710Z,5.85
2017-08-22T01:08:23.439Z,5.80
2017-08-22T01:10:51.170Z,5.47
2017-08-22T01:13:19.021Z,6.53
2017-08-22T01:15:46.889Z,5.32
2017-08-22T01:18:14.758Z,5.00
2017-08-22T01:20:42.622Z,4.90
2017-08-22T01:23:10.361Z,5.00
2017-08-22T01:25:38.082Z,4.90
2017-08-22T01:28:05.879Z,6.25
2017-08-22T01:30:33.685Z,5.60
2017-08-22T01:33:01.474Z,5.35
2017-08-22T01:35:29.202Z,5.85
2017-08-22T01:37:56.979Z,5.20
2017-08-22T01:40:24.755Z,5.62
2017-08-22T01:42:52.520Z,5.43
2017-08-22T01:45:20.277Z,5.87
2017-08-22T01:47:48.000Z,6.93
2017-08-22T01:50:15.801Z,5.93
2017-08-22T01:52:43.668Z,6.20
2017-08-22T01:55:11.536Z,6.65
2017-08-22T01:57:39.403Z,6.50
2017-08-22T02:00:07.271Z,6.80
2017-08-22T02:02:35.138Z,6.05
2017-08-22T02:05:02.939Z,6.68
2017-08-22T02:07:30.770Z,6.82
2017-08-22T02:09:58.566Z,8.23
2017-08-22T02:12:26.505Z,6.70
2017-08-22T02:14:54.372Z,6.60
2017-08-22T02:17:22.240Z,7.60
2017-08-22T02:19:50.107Z,6.00
2017-08-22T02:22:17.974Z,7.22
2017-08-22T02:24:45.842Z,7.03
2017-08-22T02:27:13.710Z,7.78
2017-08-22T02:29:41.576Z,7.80
2017-08-22T02:32:09.287Z,7.85
2017-08-22T02:34:36.997Z,7.60
2017-08-22T02:37:04.870Z,7.47
2017-08-22T02:39:32.739Z,7.32
2017-08-22T02:42:00.707Z,7.32
2017-08-22T02:44:28.587Z,8.73
2017-08-22T02:46:56.443Z,8.45
2017-08-22T02:49:24.242Z,8.65
2017-08-22T02:51:52.074Z,7.93
2017-08-22T02:54:19.943Z,7.55
2017-08-22T02:56:47.809Z,7.40
2017-08-22T02:59:15.676Z,7.85
2017-08-22T03:01:43.543Z,7.80
2017-08-22T03:04:11.412Z,8.82
2017-08-22T03:06:39.279Z,7.90
2017-08-22T03:09:07.146Z,7.72
2017-08-22T03:11:34.858Z,7.32
2017-08-22T03:14:02.582Z,7.82
2017-08-22T03:16:30.440Z,8.02
2017-08-22T03:18:58.153Z,7.55
2017-08-22T03:21:25.971Z,7.93
2017-08-22T03:23:53.837Z,7.97
2017-08-22T03:26:21.704Z,8.32
2017-08-22T03:28:49.572Z,7.80
2017-08-22T03:31:17.439Z,7.85
2017-08-22T03:33:45.145Z,7.50
2017-08-22T03:36:12.972Z,7.18
2017-08-22T03:38:40.838Z,7.95
2017-08-22T03:41:08.708Z,8.15
2017-08-22T03:43:36.576Z,8.32
2017-08-22T03:46:04.374Z,8.23
2017-08-22T03:48:32.102Z,8.07
2017-08-22T03:50:59.873Z,9.07
2017-08-22T03:53:27.732Z,7.53
2017-08-22T03:55:55.601Z,8.35
2017-08-22T03:58:23.468Z,8.55
2017-08-22T04:00:51.335Z,8.18
2017-08-22T04:03:19.061Z,8.90
2017-08-22T04:05:46.864Z,7.90
2017-08-22T04:08:14.734Z,7.85
2017-08-22T04:10:42.601Z,8.55
2017-08-22T04:13:10.467Z,8.95
2017-08-22T04:15:38.196Z,8.27
2017-08-22T04:18:05.905Z,7.93
2017-08-22T04:20:33.760Z,7.85
2017-08-22T04:23:01.644Z,9.13
2017-08-22T04:25:29.497Z,9.30
2017-08-22T04:27:57.364Z,8.77
2017-08-22T04:30:25.230Z,9.15
2017-08-22T04:32:53.099Z,8.38
2017-08-22T04:35:20.965Z,9.15
2017-08-22T04:37:48.732Z,9.82
2017-08-22T04:40:16.597Z,8.25
2017-08-22T04:42:44.465Z,9.95
2017-08-22T04:45:12.331Z,10.18
2017-08-22T04:47:40.200Z,9.73
2017-08-22T04:50:08.066Z,9.98
2017-08-22T04:52:35.934Z,9.13
2017-08-22T04:55:03.801Z,8.75
2017-08-22T04:57:31.668Z,9.60
2017-08-22T04:59:59.535Z,8.68
2017-08-22T05:02:27.404Z,8.93
2017-08-22T05:04:55.269Z,9.70
2017-08-22T05:07:23.138Z,8.48
2017-08-22T05:09:51.005Z,8.95
2017-08-22T05:12:18.872Z,9.73
2017-08-22T05:14:46.740Z,10.00
2017-08-22T05:17:14.608Z,10.48
2017-08-22T05:19:42.474Z,9.10
2017-08-22T05:22:10.342Z,9.98
2017-08-22T05:24:38.209Z,9.43
2017-08-22T05:27:06.076Z,9.82
2017-08-22T05:29:33.943Z,9.82
2017-08-22T05:32:01.810Z,10.82
2017-08-22T05:34:29.678Z,9.98
2017-08-22T05:36:57.545Z,10.02
2017-08-22T05:39:25.413Z,10.35
2017-08-22T05:41:53.279Z,9.75
2017-08-22T05:44:22.606Z,9.38
2017-08-22T05:46:50.448Z,9.68
2017-08-22T05:49:20.367Z,9.25
2017-08-22T05:51:48.230Z,9.45
2017-08-22T05:54:16.098Z,9.30
2017-08-22T05:56:43.967Z,9.88
2017-08-22T05:59:11.831Z,9.80
2017-08-22T06:01:39.699Z,9.32
2017-08-22T06:04:07.567Z,9.32
2017-08-22T06:06:35.434Z,9.15
2017-08-22T06:09:03.301Z,9.50
2017-08-22T06:11:31.169Z,9.15
2017-08-22T06:13:59.031Z,8.50
2017-08-22T06:16:26.904Z,9.98
2017-08-22T06:18:54.771Z,9.45
2017-08-22T06:21:22.632Z,8.45
2017-08-22T06:23:50.505Z,9.40
2017-08-22T06:26:18.373Z,8.93
2017-08-22T06:28:46.240Z,7.97
2017-08-22T06:31:14.107Z,7.25
2017-08-22T06:33:41.974Z,6.95
2017-08-22T06:36:09.845Z,7.55
2017-08-22T06:38:37.710Z,6.53
2017-08-22T06:41:05.576Z,5.90
2017-08-22T06:43:33.440Z,5.10
2017-08-22T06:46:01.315Z,5.30
2017-08-22T06:48:29.183Z,5.72
2017-08-22T06:50:57.052Z,5.40
2017-08-22T06:53:24.912Z,4.50
2017-08-22T06:55:52.784Z,4.07
2017-08-22T06:58:20.652Z,5.55
2017-08-22T07:00:48.516Z,5.78
2017-08-22T07:03:16.384Z,5.53
2017-08-22T07:05:44.250Z,4.97
2017-08-22T07:08:12.116Z,4.80
2017-08-22T07:10:39.983Z,4.68
2017-08-22T07:13:07.851Z,4.68
2017-08-22T07:15:35.717Z,4.32
2017-08-22T07:18:03.585Z,5.07
2017-08-22T07:20:31.453Z,4.20
2017-08-22T07:22:59.320Z,4.87
2017-08-22T07:25:27.188Z,4.25
2017-08-22T07:27:55.056Z,4.10
2017-08-22T07:30:22.923Z,4.50
2017-08-22T07:32:50.790Z,5.15
2017-08-22T07:35:18.656Z,4.65
2017-08-22T07:37:46.524Z,4.50
2017-08-22T07:40:14.391Z,4.87
2017-08-22T07:42:42.258Z,3.95
2017-08-22T07:45:10.126Z,5.10
2017-08-22T07:47:37.993Z,5.28
2017-08-22T07:50:05.861Z,4.43
2017-08-22T07:52:33.727Z,5.03
2017-08-22T07:55:01.594Z,4.47
2017-08-22T07:57:29.461Z,5.12
2017-08-22T07:59:57.330Z,4.50
2017-08-22T08:02:25.197Z,4.25
2017-08-22T08:04:53.064Z,4.60
2017-08-22T08:07:20.931Z,4.32
2017-08-22T08:09:49.106Z,3.35
2017-08-22T08:12:16.973Z,4.53
2017-08-22T08:14:44.770Z,3.90
2017-08-22T08:17:13.424Z,3.75
2017-08-22T08:19:41.292Z,4.20
2017-08-22T08:22:09.159Z,3.60
2017-08-22T08:24:37.028Z,4.32
2017-08-22T08:27:04.893Z,4.95
2017-08-22T08:29:32.760Z,4.00
2017-08-22T08:32:00.627Z,3.50
2017-08-22T08:34:28.495Z,4.25
2017-08-22T08:36:56.362Z,3.60
2017-08-22T08:39:24.223Z,3.85
2017-08-22T08:41:52.027Z,3.92
2017-08-22T08:44:19.862Z,3.45
2017-08-22T08:46:47.733Z,3.90
2017-08-22T08:49:15.596Z,3.50
2017-08-22T08:51:43.464Z,3.70
2017-08-22T08:54:11.331Z,3.90
2017-08-22T08:56:39.199Z,4.07
2017-08-22T08:59:07.089Z,3.72
2017-08-22T09:01:34.936Z,4.07
2017-08-22T09:04:02.801Z,3.85
2017-08-22T09:06:30.668Z,4.32
2017-08-22T09:08:58.535Z,3.95
2017-08-22T09:11:26.402Z,3.87
2017-08-22T09:13:54.270Z,4.32
2017-08-22T09:16:22.139Z,4.62
2017-08-22T09:18:50.003Z,4.70
2017-08-22T09:21:17.871Z,4.12
2017-08-22T09:23:45.738Z,3.78
2017-08-22T09:26:13.607Z,3.70
2017-08-22T09:28:41.477Z,3.70
2017-08-22T09:31:09.339Z,4.05
2017-08-22T09:33:37.207Z,4.25
2017-08-22T09:36:05.073Z,3.47
2017-08-22T09:38:32.942Z,3.30
2017-08-22T09:41:00.810Z,2.83
2017-08-22T09:43:28.676Z,3.30
2017-08-22T09:45:56.544Z,3.58
2017-08-22T09:48:24.411Z,2.80
2017-08-22T09:50:52.279Z,3.00
2017-08-22T09:53:20.146Z,2.60
2017-08-22T09:55:48.014Z,3.17
2017-08-22T09:58:15.982Z,2.95
2017-08-22T10:00:43.855Z,2.65
2017-08-22T10:03:11.721Z,2.25
2017-08-22T10:05:39.586Z,3.20
2017-08-22T10:08:07.452Z,2.87
2017-08-22T10:10:35.323Z,3.17
2017-08-22T10:13:03.191Z,3.35
2017-08-22T10:15:31.057Z,2.97
2017-08-22T10:17:58.921Z,2.58
2017-08-22T10:20:26.789Z,2.72
2017-08-22T10:22:54.656Z,3.20
2017-08-22T10:25:22.522Z,3.05
2017-08-22T10:27:50.389Z,3.00
2017-08-22T10:30:18.256Z,2.62
2017-08-22T10:32:46.124Z,2.67
2017-08-22T10:35:13.991Z,2.75
2017-08-22T10:37:41.859Z,2.72
2017-08-22T10:40:09.725Z,2.40
2017-08-22T10:42:37.594Z,2.42
2017-08-22T10:45:05.460Z,2.45
2017-08-22T10:47:33.328Z,2.80
2017-08-22T10:50:01.194Z,2.87
2017-08-22T10:52:29.063Z,2.58
2017-08-22T10:54:56.930Z,2.30
2017-08-22T10:57:24.797Z,2.55
2017-08-22T10:59:52.664Z,2.20
2017-08-22T11:02:20.531Z,2.05
2017-08-22T11:04:48.523Z,2.67
2017-08-22T11:07:16.368Z,2.87
2017-08-22T11:09:44.236Z,3.00
2017-08-22T11:12:12.103Z,2.90
2017-08-22T11:14:39.970Z,2.22
2017-08-22T11:17:07.837Z,2.47
2017-08-22T11:19:35.706Z,2.50
2017-08-22T11:22:03.572Z,2.60
2017-08-22T11:24:31.438Z,2.65
2017-08-22T11:26:59.306Z,2.75
2017-08-22T11:29:27.173Z,2.20
2017-08-22T11:31:55.041Z,2.60
2017-08-22T11:34:22.908Z,2.70
2017-08-22T11:36:50.776Z,2.55
2017-08-22T11:39:18.642Z,2.50
2017-08-22T11:41:46.511Z,2.45
2017-08-22T11:44:14.377Z,2.00
2017-08-22T11:46:42.245Z,2.78
2017-08-22T11:49:10.112Z,3.17
2017-08-22T11:51:37.979Z,2.78
2017-08-22T11:54:05.846Z,2.60
2017-08-22T11:56:33.714Z,2.28
2017-08-22T11:59:01.581Z,2.20
2017-08-22T12:01:29.448Z,2.80
2017-08-22T12:03:57.315Z,2.37
2017-08-22T12:06:25.183Z,2.30
2017-08-22T12:08:53.049Z,2.30
2017-08-22T12:11:20.815Z,2.40
2017-08-22T12:13:48.682Z,2.72
2017-08-22T12:16:16.549Z,2.60
2017-08-22T12:18:44.415Z,2.55
2017-08-22T12:21:12.285Z,2.55
2017-08-22T12:23:40.154Z,2.87
2017-08-22T12:26:08.019Z,2.40
2017-08-22T12:28:35.893Z,3.17
2017-08-22T12:31:03.756Z,2.30
2017-08-22T12:33:31.619Z,2.45
2017-08-22T12:35:59.488Z,2.10
2017-08-22T12:38:27.353Z,2.50
2017-08-22T12:40:55.222Z,2.40
2017-08-22T12:43:23.088Z,2.40
2017-08-22T12:45:50.956Z,2.75
2017-08-22T12:48:18.823Z,2.95
2017-08-22T12:50:46.693Z,2.50
2017-08-22T12:53:14.557Z,2.33
2017-08-22T12:55:42.424Z,1.95
2017-08-22T12:58:10.292Z,2.70
2017-08-22T13:00:38.159Z,2.50
2017-08-22T13:03:06.026Z,2.60
2017-08-22T13:05:33.894Z,2.20
2017-08-22T13:08:01.761Z,2.10
2017-08-22T13:10:29.628Z,2.60
2017-08-22T13:12:57.496Z,2.53
2017-08-22T13:15:25.366Z,3.50
2017-08-22T13:17:53.230Z,2.12
2017-08-22T13:20:21.099Z,2.40
2017-08-22T13:22:48.972Z,2.28
2017-08-22T13:25:16.776Z,2.20
2017-08-22T13:27:44.534Z,2.30
2017-08-22T13:30:13.181Z,2.40
2017-08-22T13:32:41.053Z,2.80
2017-08-22T13:35:08.920Z,2.40
2017-08-22T13:37:36.785Z,2.30
2017-08-22T13:40:04.650Z,2.45
2017-08-22T13:42:32.518Z,2.40
2017-08-22T13:45:00.384Z,2.50
2017-08-22T13:47:28.253Z,2.80
2017-08-22T13:49:56.118Z,3.10
2017-08-22T13:52:23.986Z,2.53
2017-08-22T13:54:51.853Z,2.25
2017-08-22T13:57:19.720Z,2.67
2017-08-22T13:59:47.613Z,2.70
2017-08-22T14:02:15.456Z,2.30
2017-08-22T14:04:43.322Z,2.78
2017-08-22T14:07:11.189Z,2.30
2017-08-22T14:09:39.066Z,2.55
2017-08-22T14:12:06.924Z,2.58
2017-08-22T14:14:34.793Z,2.95
2017-08-22T14:17:02.658Z,2.60
2017-08-22T14:19:30.527Z,2.53
2017-08-22T14:21:58.393Z,2.12
2017-08-22T14:24:26.260Z,2.42
2017-08-22T14:26:54.127Z,2.40
2017-08-22T14:29:21.995Z,2.40
2017-08-22T14:31:50.068Z,2.55
2017-08-22T14:34:17.934Z,2.40
2017-08-22T14:36:45.802Z,2.75
2017-08-22T14:39:13.669Z,2.85
2017-08-22T14:41:41.535Z,2.45
2017-08-22T14:44:09.402Z,2.45
2017-08-22T14:46:37.270Z,2.55
2017-08-22T14:49:05.138Z,2.62
2017-08-22T14:51:33.005Z,2.42
2017-08-22T14:54:00.871Z,2.62
2017-08-22T14:56:28.739Z,2.70
2017-08-22T14:58:56.607Z,3.03
2017-08-22T15:01:24.480Z,2.45
2017-08-22T15:03:52.351Z,2.70
2017-08-22T15:06:20.208Z,2.65
2017-08-22T15:08:48.075Z,2.90
2017-08-22T15:11:15.968Z,2.83
2017-08-22T15:13:43.816Z,2.53
2017-08-22T15:16:11.678Z,2.97
2017-08-22T15:18:39.475Z,3.28
2017-08-22T15:21:07.310Z,2.67
2017-08-22T15:23:35.176Z,3.10
2017-08-22T15:26:03.044Z,3.05
2017-08-22T15:28:30.910Z,3.33
2017-08-22T15:30:58.779Z,2.85
2017-08-22T15:33:26.645Z,3.05
2017-08-22T15:35:54.517Z,3.20
2017-08-22T15:38:22.379Z,2.80
2017-08-22T15:40:50.184Z,3.15
2017-08-22T15:43:18.012Z,3.90
2017-08-22T15:45:45.879Z,3.60
2017-08-22T15:48:13.746Z,3.80
2017-08-22T15:51:18.581Z,2.97
2017-08-22T15:53:46.448Z,2.65
2017-08-22T15:56:14.308Z,3.20
2017-08-22T15:58:42.182Z,2.80
2017-08-22T16:01:10.049Z,4.15
2017-08-22T16:03:37.916Z,3.47
2017-08-22T16:06:05.783Z,3.00
2017-08-22T16:08:33.660Z,3.00
2017-08-22T16:11:01.451Z,2.80
2017-08-22T16:13:29.282Z,2.80
2017-08-22T16:15:57.150Z,3.15
2017-08-22T16:18:25.017Z,3.80
2017-08-22T16:20:52.885Z,3.30
2017-08-22T16:23:20.751Z,2.90
2017-08-22T16:25:48.619Z,3.08
2017-08-22T16:28:16.486Z,3.05
2017-08-22T16:30:44.354Z,3.28
2017-08-22T16:33:12.221Z,2.95
2017-08-22T16:35:40.088Z,3.40
2017-08-22T16:38:07.956Z,3.05
2017-08-22T16:40:35.822Z,3.60
2017-08-22T16:43:03.689Z,3.05
2017-08-22T16:45:31.559Z,3.10
2017-08-22T16:47:59.424Z,3.25
2017-08-22T16:50:27.292Z,2.80
2017-08-22T16:52:55.163Z,3.37
2017-08-22T16:55:23.029Z,3.20
2017-08-22T16:57:50.895Z,3.03
2017-08-22T17:00:18.761Z,3.25
2017-08-22T17:02:46.632Z,3.42
2017-08-22T17:05:14.505Z,3.40
2017-08-22T17:07:42.365Z,2.90
2017-08-22T17:10:10.230Z,3.25
2017-08-22T17:12:38.104Z,3.67
2017-08-22T17:15:05.965Z,2.80
2017-08-22T17:17:33.832Z,3.50
2017-08-22T17:20:01.700Z,4.00
2017-08-22T17:22:29.565Z,4.22
2017-08-22T17:24:57.435Z,3.35
2017-08-22T17:27:25.300Z,3.90
2017-08-22T17:29:53.167Z,2.97
2017-08-22T17:32:21.035Z,3.75
2017-08-22T17:34:48.902Z,3.35
2017-08-22T17:37:16.769Z,3.75
2017-08-22T17:39:44.636Z,3.20
2017-08-22T17:42:12.505Z,3.65
2017-08-22T17:44:40.371Z,3.12
2017-08-22T17:47:08.238Z,3.45
2017-08-22T17:49:36.105Z,3.53
2017-08-22T17:52:03.995Z,3.28
2017-08-22T17:54:31.841Z,3.50
2017-08-22T17:56:59.707Z,4.00
2017-08-22T17:59:27.573Z,3.75
2017-08-22T18:01:55.441Z,3.30
2017-08-22T18:04:23.309Z,3.58
2017-08-22T18:06:51.176Z,3.53
2017-08-22T18:09:19.043Z,3.22
2017-08-22T18:11:46.910Z,3.35
2017-08-22T18:14:14.779Z,3.50
2017-08-22T18:16:42.647Z,3.78
2017-08-22T18:19:10.512Z,3.92
2017-08-22T18:21:38.379Z,3.80
2017-08-22T18:24:06.246Z,4.10
2017-08-22T18:26:34.116Z,3.67
2017-08-22T18:29:01.981Z,4.07
2017-08-22T18:31:29.848Z,4.70
2017-08-22T18:33:57.717Z,4.43
2017-08-22T18:36:25.582Z,4.40
2017-08-22T18:38:53.450Z,5.05
2017-08-22T18:41:21.318Z,4.50
2017-08-22T18:43:49.185Z,4.90
2017-08-22T18:46:17.052Z,4.68
2017-08-22T18:48:44.919Z,4.57
2017-08-22T18:51:12.786Z,4.80
2017-08-22T18:53:40.659Z,3.95
2017-08-22T18:56:08.446Z,4.60
2017-08-22T18:58:36.188Z,4.15
2017-08-22T19:01:04.051Z,4.25
2017-08-22T19:03:31.917Z,4.50
2017-08-22T19:05:59.785Z,4.75
2017-08-22T19:08:27.511Z,4.70
2017-08-22T19:10:56.192Z,4.72
2017-08-22T19:13:23.927Z,4.53
2017-08-22T19:15:51.646Z,5.12
2017-08-22T19:18:19.660Z,4.50
2017-08-22T19:20:47.382Z,4.85
2017-08-22T19:23:15.103Z,4.35
2017-08-22T19:25:42.826Z,4.85
2017-08-22T19:28:10.559Z,4.03
2017-08-22T19:30:38.286Z,4.82
2017-08-22T19:33:06.046Z,3.85
2017-08-22T19:35:33.845Z,4.70
2017-08-22T19:38:01.852Z,5.00
2017-08-22T19:40:29.572Z,5.10
2017-08-22T19:42:57.314Z,4.70
2017-08-22T19:45:25.095Z,4.75
2017-08-22T19:47:52.813Z,6.00
2017-08-22T19:50:20.547Z,4.10
2017-08-22T19:52:48.261Z,4.25
2017-08-22T19:55:15.983Z,5.12
2017-08-22T19:57:43.710Z,4.82
2017-08-22T20:00:11.469Z,5.18
2017-08-22T20:02:39.173Z,5.35
2017-08-22T20:05:06.898Z,5.45
2017-08-22T20:07:34.626Z,4.97
2017-08-22T20:10:02.334Z,5.50
2017-08-22T20:12:30.038Z,5.43
2017-08-22T20:14:57.763Z,5.32
2017-08-22T20:17:25.478Z,5.25
2017-08-22T20:19:53.191Z,4.90
2017-08-22T20:22:20.913Z,5.03
2017-08-22T20:24:48.630Z,4.85
2017-08-22T20:27:16.341Z,5.30
2017-08-22T20:29:44.042Z,5.22
2017-08-22T20:32:11.751Z,4.50
2017-08-22T20:34:39.463Z,5.20
2017-08-22T20:37:07.173Z,5.00
2017-08-22T20:39:34.881Z,4.87
2017-08-22T20:42:02.598Z,5.07
2017-08-22T20:44:30.331Z,6.00
2017-08-22T20:46:58.045Z,4.20
2017-08-22T20:49:25.775Z,4.22
2017-08-22T20:51:53.508Z,4.55
2017-08-22T20:54:21.231Z,4.82
2017-08-22T20:56:48.946Z,3.85
2017-08-22T20:59:16.680Z,4.60
2017-08-22T21:01:44.414Z,4.37
2017-08-22T21:04:12.147Z,4.80
2017-08-22T21:06:39.880Z,4.87
2017-08-22T21:09:07.603Z,4.35
2017-08-22T21:11:35.323Z,4.97
2017-08-22T21:14:03.051Z,4.93
2017-08-22T21:16:30.779Z,5.22
2017-08-22T21:18:58.500Z,4.93
2017-08-22T21:21:26.243Z,4.60
2017-08-22T21:23:54.284Z,6.00
2017-08-22T21:26:22.003Z,5.20
2017-08-22T21:28:49.729Z,5.18
2017-08-22T21:31:17.454Z,4.95
2017-08-22T21:33:45.180Z,5.30
2017-08-22T21:36:12.914Z,5.85
2017-08-22T21:38:40.642Z,5.43
2017-08-22T21:41:08.359Z,5.28
2017-08-22T21:43:36.087Z,5.00
2017-08-22T21:46:03.810Z,5.20
2017-08-22T21:48:31.529Z,4.40
2017-08-22T21:50:59.244Z,5.43
2017-08-22T21:53:26.964Z,6.00
2017-08-22T21:55:54.683Z,5.65
2017-08-22T21:58:25.724Z,5.07
2017-08-22T22:00:57.124Z,4.62
2017-08-22T22:03:28.526Z,5.20
2017-08-22T22:05:59.341Z,5.25
2017-08-22T22:08:31.877Z,4.90
2017-08-22T22:11:04.371Z,5.07
2017-08-22T22:13:36.671Z,4.85
2017-08-22T22:16:09.451Z,5.18
2017-08-22T22:18:42.500Z,5.22
2017-08-22T22:21:15.607Z,5.15
2017-08-22T22:23:47.026Z,5.50
2017-08-22T22:26:17.898Z,5.25
2017-08-22T22:28:48.925Z,6.50
2017-08-22T22:31:18.908Z,5.65
2017-08-22T22:33:49.018Z,4.80
2017-08-22T22:36:19.356Z,4.93
2017-08-22T22:38:50.672Z,5.53
2017-08-22T22:41:21.691Z,5.60
2017-08-22T22:43:53.170Z,5.55
2017-08-22T22:46:25.329Z,5.20
2017-08-22T22:48:58.433Z,4.90
2017-08-22T22:51:31.764Z,5.45
2017-08-22T22:54:05.353Z,5.47
2017-08-22T22:56:36.932Z,5.57
2017-08-22T22:59:08.618Z,5.90
2017-08-22T23:01:38.522Z,5.35
2017-08-22T23:04:09.253Z,6.15
2017-08-22T23:06:39.839Z,6.40
2017-08-22T23:09:10.107Z,6.12
2017-08-22T23:11:43.172Z,6.40
2017-08-22T23:14:15.299Z,6.25
2017-08-22T23:16:47.811Z,6.75
2017-08-22T23:19:19.891Z,5.82
2017-08-22T23:21:52.311Z,6.78
2017-08-22T23:24:24.500Z,6.90
2017-08-22T23:26:56.594Z,6.37
2017-08-22T23:29:29.117Z,9.02
2017-08-22T23:32:01.574Z,8.15
2017-08-22T23:34:33.521Z,8.88
2017-08-22T23:37:04.106Z,8.30
2017-08-22T23:39:34.616Z,7.00
2017-08-22T23:42:04.742Z,7.70
2017-08-22T23:44:34.958Z,7.82
2017-08-22T23:47:04.395Z,7.07
2017-08-22T23:49:35.283Z,8.05
2017-08-22T23:52:06.729Z,7.53
2017-08-22T23:54:38.525Z,8.02
2017-08-22T23:57:10.453Z,8.30
2017-08-22T23:59:42.311Z,7.05
